Time;durP1;ratioP1;P1;durP2;ratioP2;P2;SDS_P1;SDS_P2;PMS_P1;PMS_P2;Temp;Humidity;BMP_temperature;BMP_pressure;BME280_temperature;BME280_humidity;BME280_pressure;Samples;Min_cycle;Max_cycle;Signal;HPM_P1;HPM_P2
2022/05/19 00:01:04;;;;;;;13.00;9.77;;;;;;;18.88;74.77;101850.22;5063697;28;20044;-69
2022/05/19 00:03:32;;;;;;;19.42;11.45;;;;;;;18.92;74.65;101843.75;5065160;28;20282;-69
2022/05/19 00:05:58;;;;;;;15.37;11.30;;;;;;;18.89;74.35;101832.34;5066208;28;20550;-68
2022/05/19 00:08:23;;;;;;;16.35;10.40;;;;;;;19.00;74.21;101837.13;5065476;28;20275;-67
2022/05/19 00:10:49;;;;;;;14.05;10.18;;;;;;;19.03;74.67;101823.63;5063923;28;20025;-67
2022/05/19 00:13:14;;;;;;;17.55;10.30;;;;;;;19.06;74.12;101828.78;5065346;28;20028;-67
2022/05/19 00:15:40;;;;;;;15.57;10.23;;;;;;;19.09;74.35;101828.66;5064874;28;20071;-67
2022/05/19 00:18:05;;;;;;;16.05;12.20;;;;;;;19.13;74.49;101824.88;5062045;28;20020;-69
2022/05/19 00:20:30;;;;;;;17.15;11.55;;;;;;;19.21;73.86;101831.59;5066183;28;20035;-67
2022/05/19 00:22:55;;;;;;;19.88;11.73;;;;;;;19.23;74.09;101837.72;5062317;28;20132;-69
2022/05/19 00:25:21;;;;;;;21.63;12.05;;;;;;;19.22;73.83;101826.16;5065715;28;20107;-68
2022/05/19 00:27:48;;;;;;;22.55;12.07;;;;;;;19.19;73.99;101835.22;5065932;28;20090;-66
2022/05/19 00:30:14;;;;;;;17.20;11.80;;;;;;;19.23;74.29;101821.69;5068710;28;20020;-67
2022/05/19 00:32:39;;;;;;;17.85;11.57;;;;;;;19.35;73.85;101825.50;5069409;28;20032;-66
2022/05/19 00:35:05;;;;;;;14.73;11.32;;;;;;;19.43;73.37;101813.44;5068306;28;20025;-67
2022/05/19 00:37:30;;;;;;;21.45;12.77;;;;;;;19.34;74.33;101805.91;5067998;28;20032;-67
2022/05/19 00:39:55;;;;;;;16.15;10.80;;;;;;;19.40;74.13;101810.94;5069282;28;20021;-68
2022/05/19 00:42:54;;;;;;;17.02;11.38;;;;;;;19.43;73.92;101807.22;5068155;28;20828;-67
2022/05/19 00:45:25;;;;;;;18.13;11.15;;;;;;;19.48;73.40;101796.25;5066762;28;20042;-66
2022/05/19 00:48:00;;;;;;;21.35;12.38;;;;;;;19.45;73.54;101790.13;5068374;28;20044;-68
2022/05/19 00:50:36;;;;;;;13.45;11.07;;;;;;;19.44;73.90;101788.41;5068959;28;20062;-69
2022/05/19 00:53:09;;;;;;;18.10;12.07;;;;;;;19.42;74.06;101782.28;5067840;28;20364;-69
2022/05/19 00:55:40;;;;;;;17.85;10.45;;;;;;;19.39;73.97;101777.13;5066834;28;20036;-66
2022/05/19 00:58:11;;;;;;;17.27;11.30;;;;;;;19.37;74.02;101776.34;5066749;28;20024;-67
2022/05/19 01:00:37;;;;;;;22.73;11.80;;;;;;;19.34;73.95;101783.66;5068771;28;20126;-67
2022/05/19 01:03:02;;;;;;;21.38;13.57;;;;;;;19.37;74.19;101781.69;5068069;28;20077;-68
2022/05/19 01:05:32;;;;;;;19.98;12.95;;;;;;;19.34;73.81;101773.84;5069220;28;20376;-68
2022/05/19 01:10:28;;;;;;;22.10;11.88;;;;;;;19.32;74.20;101770.41;5101528;22;20064;-68
2022/05/19 01:12:54;;;;;;;20.27;12.77;;;;;;;19.26;74.41;101765.44;5049056;28;20036;-67
2022/05/19 01:15:20;;;;;;;24.08;14.45;;;;;;;19.34;74.21;101759.63;5046623;28;20543;-67
2022/05/19 01:17:45;;;;;;;19.85;14.48;;;;;;;19.34;74.38;101755.16;5030243;28;20734;-68
2022/05/19 01:20:16;;;;;;;20.80;12.88;;;;;;;19.29;74.27;101759.88;5047425;28;20024;-68
2022/05/19 01:22:50;;;;;;;22.25;13.82;;;;;;;19.28;74.30;101745.69;5047439;28;20055;-67
2022/05/19 01:25:40;;;;;;;19.27;13.75;;;;;;;19.23;74.71;101739.72;5048317;28;20481;-68
2022/05/19 01:28:05;;;;;;;24.98;13.57;;;;;;;19.26;74.77;101736.03;5029513;28;20029;-68
2022/05/19 01:30:31;;;;;;;22.30;14.25;;;;;;;19.25;75.16;101739.63;5031123;28;20096;-68
2022/05/19 01:32:57;;;;;;;23.60;14.43;;;;;;;19.23;75.23;101750.41;5047968;28;20482;-68
2022/05/19 01:35:22;;;;;;;23.30;14.05;;;;;;;19.24;75.44;101752.16;5048070;28;20040;-67
2022/05/19 01:37:48;;;;;;;25.25;13.43;;;;;;;19.27;75.19;101749.28;5047251;28;20025;-67
2022/05/19 01:40:35;;;;;;;20.60;12.63;;;;;;;19.28;75.68;101737.66;5047076;28;20037;-67
2022/05/19 01:43:32;;;;;;;21.98;14.20;;;;;;;19.31;75.88;101729.47;5029677;28;20029;-67
2022/05/19 01:46:18;;;;;;;20.20;13.15;;;;;;;19.41;75.35;101732.47;5048795;28;20029;-67
2022/05/19 01:49:10;;;;;;;19.33;14.20;;;;;;;19.43;75.22;101730.59;5047003;28;20029;-69
2022/05/19 01:51:40;;;;;;;22.52;11.88;;;;;;;19.50;75.08;101725.72;5047384;28;20491;-69
2022/05/19 01:54:13;;;;;;;19.10;12.90;;;;;;;19.57;74.72;101716.41;5046168;28;20068;-68
2022/05/19 01:56:45;;;;;;;20.65;14.60;;;;;;;19.71;74.29;101714.72;5030233;28;20049;-67
2022/05/19 01:59:20;;;;;;;25.13;15.25;;;;;;;19.67;74.35;101713.19;5029838;28;20100;-68
2022/05/19 02:01:56;;;;;;;26.80;16.30;;;;;;;19.73;73.92;101703.94;5047687;28;20035;-67
2022/05/19 02:04:29;;;;;;;27.08;14.68;;;;;;;19.77;74.13;101694.78;5046991;28;20075;-67
2022/05/19 02:07:01;;;;;;;21.80;13.20;;;;;;;19.81;73.87;101693.66;5029947;28;20035;-68
2022/05/19 02:09:29;;;;;;;23.58;16.45;;;;;;;19.83;73.76;101711.34;5046750;28;20461;-68
2022/05/19 02:11:56;;;;;;;31.02;16.33;;;;;;;19.85;73.72;101729.09;5029506;28;20025;-67
2022/05/19 02:14:25;;;;;;;29.95;18.08;;;;;;;19.88;74.48;101743.16;5046770;28;20439;-67
2022/05/19 02:16:50;;;;;;;19.48;12.80;;;;;;;19.91;74.61;101761.69;5029917;28;20104;-68
2022/05/19 02:19:18;;;;;;;21.38;15.48;;;;;;;19.96;74.60;101764.09;5046573;28;20116;-66
2022/05/19 02:21:44;;;;;;;22.98;14.63;;;;;;;19.97;74.92;101786.34;5047408;28;20475;-68
2022/05/19 02:24:13;;;;;;;26.15;17.25;;;;;;;20.00;75.15;101791.50;5047416;28;20040;-68
2022/05/19 02:26:39;;;;;;;22.60;15.63;;;;;;;19.88;75.46;101780.59;5028681;28;20087;-68
2022/05/19 02:29:08;;;;;;;26.77;18.33;;;;;;;19.69;76.26;101783.50;5046693;28;20032;-69
2022/05/19 02:31:34;;;;;;;33.22;21.58;;;;;;;19.65;76.97;101789.94;5026715;28;20033;-68
2022/05/19 02:33:59;;;;;;;27.10;19.13;;;;;;;19.64;77.43;101823.84;5046260;28;20028;-69
2022/05/19 02:36:24;;;;;;;26.17;19.13;;;;;;;19.66;78.29;101827.28;5046052;28;20036;-68
2022/05/19 02:38:50;;;;;;;32.22;20.17;;;;;;;19.72;78.46;101823.41;5047663;28;20032;-68
2022/05/19 02:41:15;;;;;;;35.45;21.55;;;;;;;19.78;78.12;101819.53;5045664;28;20029;-69
2022/05/19 02:43:41;;;;;;;32.95;21.92;;;;;;;19.56;79.07;101824.28;5047241;28;20536;-68
2022/05/19 02:46:06;;;;;;;35.45;22.90;;;;;;;19.74;78.28;101834.03;5046712;28;20360;-68
2022/05/19 02:48:32;;;;;;;40.72;24.75;;;;;;;19.69;78.84;101842.31;5046356;28;20533;-65
2022/05/19 02:50:59;;;;;;;26.85;19.80;;;;;;;19.70;78.94;101850.25;5041201;28;20025;-68
2022/05/19 02:53:25;;;;;;;30.23;21.92;;;;;;;19.66;79.23;101837.97;5046845;28;20134;-69
2022/05/19 02:55:50;;;;;;;30.30;21.08;;;;;;;19.66;79.10;101837.97;5045793;28;20041;-68
2022/05/19 02:58:15;;;;;;;31.13;21.05;;;;;;;19.73;78.70;101840.31;5028228;28;20029;-69
2022/05/19 03:00:43;;;;;;;27.58;18.70;;;;;;;19.72;79.20;101836.78;5047559;28;20017;-68
2022/05/19 03:03:08;;;;;;;27.58;17.83;;;;;;;19.72;79.42;101826.09;5046335;28;20033;-68
2022/05/19 03:05:34;;;;;;;29.77;17.92;;;;;;;19.70;79.53;101855.59;5047632;28;20021;-68
2022/05/19 03:08:00;;;;;;;33.25;16.55;;;;;;;19.68;79.78;101869.97;5046532;28;20032;-71
2022/05/19 03:10:25;;;;;;;21.98;13.57;;;;;;;19.73;79.36;101848.31;5046945;28;20044;-70
2022/05/19 03:12:51;;;;;;;23.20;12.57;;;;;;;19.66;79.64;101835.28;5047041;28;20133;-68
2022/05/19 03:15:16;;;;;;;17.77;9.65;;;;;;;19.57;79.51;101811.78;5048083;28;20020;-70
2022/05/19 03:17:42;;;;;;;13.23;7.90;;;;;;;19.59;79.40;101817.03;5047169;28;20366;-68
2022/05/19 03:20:09;;;;;;;13.43;6.20;;;;;;;19.53;79.22;101811.09;5048914;28;20028;-69
2022/05/19 03:22:35;;;;;;;8.68;4.45;;;;;;;19.59;79.11;101793.84;5052570;28;20025;-69
2022/05/19 03:25:00;;;;;;;15.63;5.30;;;;;;;19.55;79.13;101770.91;5048373;28;20151;-70
2022/05/19 03:27:25;;;;;;;8.90;4.32;;;;;;;19.54;79.69;101777.22;5048991;28;20044;-69
2022/05/19 03:29:52;;;;;;;8.15;4.28;;;;;;;19.55;79.63;101771.78;5048764;28;20040;-69
2022/05/19 03:32:18;;;;;;;5.90;3.38;;;;;;;19.63;79.36;101773.16;5048093;28;20522;-69
2022/05/19 03:34:43;;;;;;;7.32;3.40;;;;;;;19.62;79.14;101774.94;5048800;28;20056;-71
2022/05/19 03:37:09;;;;;;;9.73;3.10;;;;;;;19.56;79.61;101776.16;5048073;28;20104;-67
2022/05/19 03:39:35;;;;;;;3.70;2.88;;;;;;;19.60;79.18;101776.88;5047883;28;20063;-70
2022/05/19 03:42:01;;;;;;;2.92;2.40;;;;;;;19.63;78.78;101792.69;5047937;28;20024;-70
2022/05/19 03:44:26;;;;;;;3.22;2.53;;;;;;;19.67;79.20;101807.63;5047563;28;20029;-68
2022/05/19 03:46:51;;;;;;;5.57;2.50;;;;;;;19.70;78.78;101833.31;5048685;28;20021;-70
2022/05/19 03:49:17;;;;;;;4.60;2.67;;;;;;;19.63;79.47;101886.25;5047672;28;20018;-70
2022/05/19 03:51:42;;;;;;;5.25;2.58;;;;;;;19.68;79.68;101951.06;5051123;28;20036;-68
2022/05/19 03:54:08;;;;;;;5.05;2.70;;;;;;;19.61;79.11;101963.03;5051371;28;20044;-71
2022/05/19 03:56:34;;;;;;;8.82;3.10;;;;;;;19.68;79.58;101958.19;5051350;28;20049;-72
2022/05/19 03:58:59;;;;;;;9.30;4.63;;;;;;;19.69;80.06;101960.78;5052579;28;20064;-74
2022/05/19 04:01:25;;;;;;;9.15;5.10;;;;;;;19.63;80.54;101929.03;5052637;28;20132;-71
2022/05/19 04:03:51;;;;;;;5.03;4.25;;;;;;;19.73;80.19;101915.16;5050693;28;20439;-70
2022/05/19 04:06:18;;;;;;;6.85;4.45;;;;;;;19.80;79.42;101917.41;5063380;28;20025;-73
2022/05/19 04:08:44;;;;;;;8.32;4.32;;;;;;;19.75;78.76;101929.31;5061982;28;20041;-69
2022/05/19 04:11:09;;;;;;;6.07;4.05;;;;;;;19.81;79.04;101919.13;5049813;28;20092;-65
2022/05/19 04:13:34;;;;;;;7.70;4.38;;;;;;;19.85;79.20;101901.13;5049433;28;20559;-65
2022/05/19 04:16:00;;;;;;;5.32;4.30;;;;;;;19.85;79.21;101884.19;5048381;28;20056;-64
2022/05/19 04:18:25;;;;;;;10.38;6.00;;;;;;;19.80;79.02;101868.41;5048789;28;20025;-63
2022/05/19 04:20:50;;;;;;;8.75;5.47;;;;;;;19.75;79.64;101873.19;5046509;28;20098;-62
2022/05/19 04:23:16;;;;;;;8.18;5.47;;;;;;;19.79;79.30;101834.59;5047004;28;21068;-62
2022/05/19 04:25:42;;;;;;;9.32;5.80;;;;;;;19.81;79.58;101848.75;5048121;28;20057;-62
2022/05/19 04:28:08;;;;;;;12.63;7.40;;;;;;;19.67;80.86;101882.50;5047977;28;20032;-62
2022/05/19 04:30:33;;;;;;;10.55;5.93;;;;;;;19.77;80.28;101873.94;5048206;28;20032;-61
2022/05/19 04:32:58;;;;;;;7.18;6.28;;;;;;;19.77;80.49;101884.63;5049193;28;20028;-62
2022/05/19 04:35:24;;;;;;;11.27;6.60;;;;;;;19.89;79.76;101875.91;5048342;28;20013;-62
2022/05/19 04:37:50;;;;;;;12.23;7.53;;;;;;;19.95;79.47;101872.91;5049202;28;20522;-63
2022/05/19 04:40:16;;;;;;;11.60;7.40;;;;;;;19.94;79.54;101871.19;5031303;28;20122;-62
2022/05/19 04:42:42;;;;;;;8.98;5.75;;;;;;;19.98;79.43;101861.16;5049190;28;20035;-62
2022/05/19 04:45:09;;;;;;;10.43;6.50;;;;;;;20.03;79.30;101853.75;5048879;28;20429;-63
2022/05/19 04:47:34;;;;;;;8.18;6.85;;;;;;;20.08;79.06;101866.88;5038409;28;20491;-62
2022/05/19 04:50:00;;;;;;;10.75;7.85;;;;;;;20.01;79.65;101870.84;5038848;28;20025;-62
2022/05/19 04:52:25;;;;;;;12.00;8.70;;;;;;;19.87;80.55;101880.47;5041867;28;20104;-60
2022/05/19 04:54:50;;;;;;;9.27;7.28;;;;;;;19.78;81.07;101876.53;5044765;28;20032;-61
2022/05/19 04:57:16;;;;;;;12.07;8.38;;;;;;;19.72;81.72;101873.34;5048789;28;20029;-62
2022/05/19 04:59:42;;;;;;;13.98;8.93;;;;;;;19.65;82.03;101864.78;5048989;28;20045;-61
2022/05/19 05:02:08;;;;;;;16.20;11.00;;;;;;;19.58;82.50;101861.63;5047182;28;20478;-62
2022/05/19 05:04:34;;;;;;;14.02;10.88;;;;;;;19.62;82.73;101855.13;5048745;28;20086;-64
2022/05/19 05:07:00;;;;;;;19.45;11.95;;;;;;;19.56;83.52;101852.81;5049118;28;20017;-61
2022/05/19 05:09:25;;;;;;;19.58;12.80;;;;;;;19.48;84.29;101844.38;5048196;28;20061;-63
2022/05/19 05:11:50;;;;;;;19.38;13.45;;;;;;;19.50;84.06;101835.31;5047463;28;20447;-61
2022/05/19 05:14:17;;;;;;;18.58;12.82;;;;;;;19.54;84.14;101833.34;5047876;28;20006;-62
2022/05/19 05:16:45;;;;;;;18.58;13.85;;;;;;;19.51;84.52;101823.66;5046981;28;20043;-62
2022/05/19 05:19:11;;;;;;;17.00;13.13;;;;;;;19.59;84.47;101803.69;5046664;28;20021;-62
2022/05/19 05:21:36;;;;;;;21.10;14.90;;;;;;;19.69;84.24;101794.19;5046763;28;20024;-62
2022/05/19 05:24:01;;;;;;;16.83;11.70;;;;;;;19.74;84.07;101780.56;5047790;28;20387;-63
2022/05/19 05:26:27;;;;;;;16.95;12.23;;;;;;;19.83;83.79;101783.53;5028733;28;20649;-63
2022/05/19 05:28:52;;;;;;;21.10;13.30;;;;;;;19.85;83.88;101780.78;5048060;28;20387;-63
2022/05/19 05:31:17;;;;;;;18.27;13.05;;;;;;;19.82;84.40;101778.28;5047073;28;20416;-63
2022/05/19 05:33:43;;;;;;;17.55;12.63;;;;;;;19.87;83.94;101770.84;5045427;28;20030;-63
2022/05/19 05:36:08;;;;;;;18.08;12.57;;;;;;;19.95;83.98;101762.34;5047127;28;20052;-63
2022/05/19 05:38:33;;;;;;;21.00;11.88;;;;;;;19.89;83.96;101766.25;5047481;28;20028;-63
2022/05/19 05:41:01;;;;;;;19.38;11.75;;;;;;;19.94;84.00;101761.53;5048324;28;20028;-64
2022/05/19 05:43:27;;;;;;;12.48;9.32;;;;;;;20.16;83.13;101757.59;5047518;28;20029;-64
2022/05/19 05:45:52;;;;;;;18.85;10.40;;;;;;;20.11;82.39;101756.16;5047488;28;20028;-64
2022/05/19 05:48:18;;;;;;;14.70;9.35;;;;;;;20.17;83.04;101761.97;5046616;28;20029;-63
2022/05/19 05:50:43;;;;;;;13.13;9.45;;;;;;;20.20;83.35;101761.78;5044382;28;20467;-63
2022/05/19 05:53:09;;;;;;;14.20;9.38;;;;;;;20.23;82.88;101755.41;5029877;28;20028;-64
2022/05/19 05:55:35;;;;;;;15.40;8.85;;;;;;;20.11;82.65;101756.16;5047974;28;20041;-65
2022/05/19 05:58:05;;;;;;;11.10;7.50;;;;;;;20.26;82.18;101746.34;5046842;28;20029;-65
2022/05/19 06:00:31;;;;;;;10.85;8.55;;;;;;;20.38;81.88;101750.91;5047100;28;20530;-64
2022/05/19 06:02:56;;;;;;;12.32;8.38;;;;;;;20.37;82.41;101741.16;5045866;28;20032;-68
2022/05/19 06:05:21;;;;;;;12.68;8.35;;;;;;;20.33;81.54;101715.56;5047255;28;20120;-65
2022/05/19 06:07:47;;;;;;;12.77;7.88;;;;;;;20.49;82.27;101709.22;5047368;28;20104;-64
2022/05/19 06:10:13;;;;;;;12.82;7.95;;;;;;;20.53;82.16;101692.06;5047079;28;20045;-65
2022/05/19 06:12:38;;;;;;;8.85;6.45;;;;;;;20.76;81.01;101711.13;5045283;28;20037;-65
2022/05/19 06:15:04;;;;;;;8.45;6.32;;;;;;;20.83;80.88;101729.41;5046128;28;20025;-63
2022/05/19 06:17:30;;;;;;;8.50;7.30;;;;;;;20.90;80.83;101735.28;5045926;28;20074;-64
2022/05/19 06:19:55;;;;;;;8.82;6.00;;;;;;;20.95;80.34;101741.19;5047040;28;20031;-65
2022/05/19 06:22:22;;;;;;;8.60;6.30;;;;;;;20.98;80.21;101740.09;5046837;28;20120;-65
2022/05/19 06:24:48;;;;;;;10.10;5.65;;;;;;;20.99;79.75;101732.94;5047274;28;20040;-65
2022/05/19 06:27:14;;;;;;;6.93;5.72;;;;;;;21.03;79.29;101734.47;5041387;28;20021;-64
2022/05/19 06:29:39;;;;;;;10.18;6.10;;;;;;;21.08;79.05;101737.72;5036329;28;20379;-64
2022/05/19 06:32:05;;;;;;;9.30;5.32;;;;;;;21.03;79.21;101747.84;5035657;28;20490;-66
2022/05/19 06:34:30;;;;;;;13.20;5.55;;;;;;;21.07;78.57;101744.03;5044344;28;20028;-66
2022/05/19 06:36:56;;;;;;;8.05;5.00;;;;;;;21.22;77.85;101742.16;5046916;28;20472;-65
2022/05/19 06:39:21;;;;;;;9.85;5.18;;;;;;;21.29;77.89;101732.78;5044995;28;20040;-65
2022/05/19 06:42:02;;;;;;;9.98;5.07;;;;;;;21.28;78.39;101732.88;5038567;28;20110;-66
2022/05/19 06:44:38;;;;;;;7.68;4.50;;;;;;;21.49;77.39;101735.94;5034413;28;20075;-66
2022/05/19 06:47:13;;;;;;;9.48;4.90;;;;;;;21.50;77.46;101736.81;5034710;28;20036;-69
2022/05/19 06:49:40;;;;;;;7.47;4.85;;;;;;;21.49;78.21;101737.78;5032669;28;20063;-66
2022/05/19 06:52:05;;;;;;;6.85;4.78;;;;;;;21.54;77.48;101741.00;5034357;28;20033;-67
2022/05/19 06:54:30;;;;;;;5.13;4.63;;;;;;;21.69;76.77;101740.00;5036939;28;20368;-67
2022/05/19 06:56:56;;;;;;;9.23;4.97;;;;;;;21.74;74.93;101741.50;5035786;28;20040;-71
2022/05/19 06:59:23;;;;;;;6.80;4.63;;;;;;;21.71;75.61;101743.41;5034558;28;20034;-67
2022/05/19 07:01:48;;;;;;;8.48;5.53;;;;;;;21.73;76.41;101746.00;5034562;28;20036;-67
2022/05/19 07:04:17;;;;;;;8.93;5.07;;;;;;;21.79;75.49;101760.88;5034100;28;20017;-68
2022/05/19 07:06:42;;;;;;;9.32;4.88;;;;;;;22.04;75.46;101765.44;5035513;28;20067;-66
2022/05/19 07:09:08;;;;;;;8.27;5.10;;;;;;;22.16;74.67;101763.72;5044049;28;20045;-68
2022/05/19 07:11:33;;;;;;;9.88;5.32;;;;;;;22.48;73.03;101762.44;5046189;28;20021;-67
2022/05/19 07:14:06;;;;;;;6.22;4.95;;;;;;;22.52;72.41;101763.09;5045796;28;20083;-66
2022/05/19 07:16:33;;;;;;;7.05;5.28;;;;;;;22.50;71.81;101765.88;5028760;28;20462;-66
2022/05/19 07:21:44;;;;;;;7.20;5.15;;;;;;;22.58;72.80;101766.22;5026532;28;20143;-66
2022/05/19 07:24:16;;;;;;;7.05;5.28;;;;;;;22.66;72.13;101762.97;5032437;28;20032;-66
2022/05/19 07:26:42;;;;;;;6.72;5.28;;;;;;;22.71;71.08;101768.91;5034904;28;20096;-67
2022/05/19 07:29:08;;;;;;;8.27;5.07;;;;;;;22.71;71.12;101765.34;5029769;28;20322;-66
2022/05/19 07:31:34;;;;;;;8.48;5.30;;;;;;;22.85;70.96;101767.06;5028996;28;20029;-67
2022/05/19 07:33:59;;;;;;;7.35;5.28;;;;;;;22.89;71.17;101770.38;5045976;28;20049;-66
2022/05/19 07:36:24;;;;;;;5.50;5.00;;;;;;;22.82;70.52;101768.13;5044812;28;20029;-64
2022/05/19 07:38:50;;;;;;;8.55;5.60;;;;;;;22.84;70.04;101765.31;5044471;28;20060;-69
2022/05/19 07:41:15;;;;;;;6.13;5.53;;;;;;;22.93;70.66;101770.03;5044473;28;20021;-69
2022/05/19 07:43:41;;;;;;;6.78;5.40;;;;;;;22.84;70.96;101773.38;5045794;28;20032;-68
2022/05/19 07:46:07;;;;;;;8.10;5.22;;;;;;;23.22;69.68;101771.56;5044668;28;20068;-69
2022/05/19 07:48:33;;;;;;;7.97;4.70;;;;;;;23.03;71.35;101772.06;5027545;28;20455;-67
2022/05/19 07:50:58;;;;;;;8.82;5.60;;;;;;;23.04;71.15;101779.16;5044736;28;20079;-69
2022/05/19 07:53:24;;;;;;;7.75;5.28;;;;;;;23.23;69.80;101784.91;5025908;28;20121;-70
2022/05/19 07:55:49;;;;;;;9.43;5.70;;;;;;;23.05;70.34;101796.97;5024447;28;20057;-66
2022/05/19 07:58:15;;;;;;;8.38;5.45;;;;;;;22.88;71.71;101804.47;5025101;28;20022;-69
2022/05/19 08:00:40;;;;;;;10.45;5.50;;;;;;;22.87;71.54;101791.97;5028650;28;20036;-67
2022/05/19 08:03:06;;;;;;;5.57;4.85;;;;;;;22.90;71.72;101786.38;5044509;28;20029;-68
2022/05/19 08:05:32;;;;;;;9.20;5.28;;;;;;;22.96;70.28;101782.38;5026745;28;20036;-67
2022/05/19 08:07:57;;;;;;;8.40;5.35;;;;;;;23.07;70.18;101774.41;5045625;28;20108;-66
2022/05/19 08:10:26;;;;;;;8.38;5.53;;;;;;;23.19;70.98;101777.16;5039990;28;20411;-67
2022/05/19 08:15:38;;;;;;;5.93;5.00;;;;;;;23.39;70.13;101775.72;5044674;28;20403;-67
2022/05/19 08:18:06;;;;;;;8.65;5.53;;;;;;;23.23;70.24;101779.53;5026381;28;20484;-68
2022/05/19 08:20:33;;;;;;;9.63;5.38;;;;;;;23.21;69.85;101778.78;5043358;28;20440;-66
2022/05/19 08:22:58;;;;;;;7.25;4.97;;;;;;;23.36;69.01;101784.00;5043060;28;20267;-68
2022/05/19 08:25:26;;;;;;;6.00;4.43;;;;;;;23.31;69.24;101773.59;5044748;28;20448;-69
2022/05/19 08:27:55;;;;;;;6.10;4.63;;;;;;;23.29;69.19;101780.91;5027708;28;20067;-69
2022/05/19 08:30:21;;;;;;;5.45;4.38;;;;;;;23.41;67.93;101779.16;5043416;28;20350;-69
2022/05/19 08:32:47;;;;;;;5.03;4.25;;;;;;;23.42;68.02;101778.19;5043479;28;20071;-71
2022/05/19 08:35:13;;;;;;;7.65;4.35;;;;;;;23.50;66.96;101784.84;5043498;28;20028;-69
2022/05/19 08:37:38;;;;;;;6.65;5.00;;;;;;;23.17;68.07;101774.59;5043617;28;20268;-67
2022/05/19 08:40:04;;;;;;;7.00;4.53;;;;;;;23.18;68.78;101775.47;5044703;28;20040;-68
2022/05/19 08:42:33;;;;;;;7.13;4.70;;;;;;;23.34;67.68;101777.88;5009895;28;20052;-68
2022/05/19 08:45:02;;;;;;;6.63;4.55;;;;;;;23.51;66.91;101775.81;5044970;28;20025;-68
2022/05/19 08:47:28;;;;;;;;;;;;;;;23.15;68.10;101768.47;5026658;28;20105;-68
2022/05/19 08:50:01;;;;;;;7.38;4.50;;;;;;;23.46;67.73;101777.00;5026818;28;19916;-67
2022/05/19 08:52:39;;;;;;;7.32;4.53;;;;;;;23.39;66.64;101777.56;5030929;28;20029;-68
2022/05/19 08:55:05;;;;;;;6.90;4.47;;;;;;;23.40;66.63;101771.22;5047200;28;20045;-67
2022/05/19 08:57:37;;;;;;;6.28;4.43;;;;;;;23.77;66.21;101771.13;5048674;28;20051;-67
2022/05/19 09:00:12;;;;;;;7.72;5.20;;;;;;;24.14;65.95;101767.47;5046680;28;20029;-70
2022/05/19 09:02:52;;;;;;;7.50;4.60;;;;;;;24.59;64.58;101771.22;5029738;28;20037;-71
2022/05/19 09:05:42;;;;;;;7.05;4.20;;;;;;;24.97;62.85;101771.84;5047545;28;20157;-67
2022/05/19 09:08:26;;;;;;;5.47;4.15;;;;;;;25.70;60.70;101771.28;5043703;28;20029;-66
2022/05/19 09:11:00;;;;;;;6.15;3.63;;;;;;;25.98;59.81;101774.34;5048097;28;20036;-70
2022/05/19 09:13:35;;;;;;;6.45;3.97;;;;;;;25.77;60.71;101763.56;5047398;28;20032;-68
2022/05/19 09:16:05;;;;;;;4.28;3.60;;;;;;;25.97;60.29;101774.47;5048201;28;20052;-67
2022/05/19 09:18:34;;;;;;;4.15;3.55;;;;;;;26.13;57.67;101779.44;5027714;28;20066;-66
2022/05/19 09:21:02;;;;;;;7.20;3.53;;;;;;;25.91;59.46;101778.56;5028902;28;20078;-63
2022/05/19 09:23:27;;;;;;;5.35;3.58;;;;;;;26.28;58.28;101779.94;5047495;28;20036;-67
2022/05/19 09:25:59;;;;;;;6.57;3.33;;;;;;;26.48;56.82;101772.81;5045657;28;20371;-64
2022/05/19 09:28:26;;;;;;;5.82;3.08;;;;;;;26.32;57.10;101785.97;5029240;28;20043;-66
2022/05/19 09:30:55;;;;;;;5.45;3.00;;;;;;;26.03;58.37;101775.81;5046428;28;20021;-66
2022/05/19 09:33:30;;;;;;;4.43;3.53;;;;;;;26.08;58.61;101778.94;5043067;28;20575;-66
2022/05/19 09:35:58;;;;;;;5.30;3.45;;;;;;;26.57;57.19;101786.50;5046967;28;20048;-68
2022/05/19 09:38:26;;;;;;;4.43;3.03;;;;;;;26.88;58.04;101778.41;5028850;28;20598;-67
2022/05/19 09:40:56;;;;;;;3.58;3.00;;;;;;;26.48;56.14;101763.84;5046906;28;20064;-68
2022/05/19 09:43:27;;;;;;;3.63;2.50;;;;;;;26.69;54.74;101755.69;5047202;28;20128;-70
2022/05/19 09:46:04;;;;;;;2.83;2.17;;;;;;;26.71;55.17;101756.44;5046037;28;20032;-67
2022/05/19 09:48:33;;;;;;;4.28;2.30;;;;;;;26.78;56.70;101755.88;5047295;28;20447;-68
2022/05/19 09:51:07;;;;;;;3.08;2.10;;;;;;;27.17;53.86;101757.84;5045628;28;20575;-67
2022/05/19 09:53:42;;;;;;;2.20;2.00;;;;;;;27.25;52.69;101739.94;5047478;28;20029;-67
2022/05/19 09:56:12;;;;;;;3.13;2.60;;;;;;;27.16;53.04;101735.34;5045609;28;20029;-68
2022/05/19 09:58:41;;;;;;;3.42;2.45;;;;;;;27.15;52.79;101725.50;5028110;28;20117;-68
2022/05/19 10:01:15;;;;;;;2.78;2.10;;;;;;;26.96;51.56;101719.06;5044329;28;20383;-68
2022/05/19 10:03:50;;;;;;;2.97;1.83;;;;;;;27.45;51.12;101720.97;5027513;28;20032;-68
2022/05/19 10:06:23;;;;;;;3.30;2.33;;;;;;;27.48;52.86;101728.81;5027095;28;20024;-75
2022/05/19 10:08:58;;;;;;;4.00;2.20;;;;;;;28.10;50.44;101721.34;5046151;28;20056;-70
2022/05/19 10:11:27;;;;;;;2.83;2.25;;;;;;;28.08;50.11;101720.66;5045547;28;20119;-70
2022/05/19 10:13:58;;;;;;;5.40;2.47;;;;;;;27.92;50.18;101724.81;5045110;28;20074;-69
2022/05/19 10:16:34;;;;;;;3.10;2.60;;;;;;;27.87;52.00;101713.53;5040398;28;20429;-67
2022/05/19 10:19:14;;;;;;;3.17;2.60;;;;;;;27.98;51.19;101702.56;5046497;28;20054;-70
2022/05/19 10:21:43;;;;;;;4.35;2.70;;;;;;;27.98;51.09;101716.09;5029257;28;20033;-67
2022/05/19 10:24:19;;;;;;;;;;;;;;;27.98;52.21;101728.78;5044998;28;20120;-63
2022/05/19 10:26:48;;;;;;;4.95;2.78;;;;;;;27.61;52.00;101744.78;5027071;28;20371;-67
2022/05/19 10:32:23;;;;;;;6.63;3.20;;;;;;;26.96;53.24;101761.47;5043228;28;20031;-69
2022/05/19 10:35:07;;;;;;;5.45;2.92;;;;;;;26.74;52.78;101755.28;5018176;28;20033;-69
2022/05/19 10:37:36;;;;;;;7.55;3.65;;;;;;;26.71;53.29;101761.84;5044055;28;20040;-67
2022/05/19 10:40:10;;;;;;;6.60;4.00;;;;;;;26.41;53.48;101768.94;5046494;28;20510;-67
2022/05/19 10:43:04;;;;;;;9.23;4.18;;;;;;;25.86;56.09;101780.81;5044183;28;20055;-66
2022/05/19 10:45:36;;;;;;;6.03;4.20;;;;;;;25.63;56.95;101775.50;5043386;28;20049;-66
2022/05/19 10:48:26;;;;;;;8.40;4.55;;;;;;;25.35;58.10;101770.53;5027224;28;20099;-68
2022/05/19 10:50:57;;;;;;;5.80;4.43;;;;;;;25.03;59.89;101773.16;5044925;28;20033;-66
2022/05/19 10:53:36;;;;;;;5.97;4.93;;;;;;;24.84;60.04;101790.81;5028297;28;20024;-66
2022/05/19 10:56:20;;;;;;;4.78;4.00;;;;;;;24.63;60.88;101818.50;5026745;28;20021;-66
2022/05/19 10:58:58;;;;;;;7.45;5.13;;;;;;;24.37;63.43;101848.31;5044730;28;20059;-65
2022/05/19 11:01:48;;;;;;;11.18;5.95;;;;;;;23.96;66.75;101858.56;5045279;28;20079;-62
2022/05/19 11:04:32;;;;;;;23.35;9.32;;;;;;;23.48;70.30;101920.28;5041238;28;20055;-61
2022/05/19 11:07:23;;;;;;;17.05;9.15;;;;;;;22.34;73.93;101921.81;5026368;28;20021;-60
2022/05/19 11:10:04;;;;;;;20.58;10.48;;;;;;;21.28;77.33;101942.78;5042757;28;20128;-59
2022/05/19 11:12:38;;;;;;;18.15;12.00;;;;;;;20.75;79.53;101937.91;5027461;28;20029;-58
2022/05/19 11:15:26;;;;;;;18.55;13.45;;;;;;;20.42;81.83;101939.84;5045011;28;20182;-59
2022/05/19 11:17:52;;;;;;;24.05;15.40;;;;;;;20.28;82.63;101940.63;5015219;28;20037;-60
2022/05/19 11:20:21;;;;;;;26.20;14.93;;;;;;;20.20;83.60;101954.44;5025797;28;20030;-59
2022/05/19 11:22:51;;;;;;;21.25;15.35;;;;;;;20.26;83.16;101955.06;5024630;28;20379;-60
2022/05/19 11:28:24;;;;;;;19.85;14.52;;;;;;;20.09;84.14;101980.94;5025535;28;20087;-61
2022/05/19 11:30:54;;;;;;;17.83;15.52;;;;;;;20.07;84.14;101974.81;5007295;28;20025;-60
2022/05/19 11:33:26;;;;;;;23.02;16.75;;;;;;;20.04;84.21;101943.75;5006991;28;20041;-60
2022/05/19 11:35:57;;;;;;;22.48;15.80;;;;;;;20.09;83.76;101919.41;5036130;28;20041;-61
2022/05/19 11:38:41;;;;;;;18.75;12.95;;;;;;;20.03;83.33;101933.16;5027084;28;20067;-61
2022/05/19 11:41:34;;;;;;;22.20;14.45;;;;;;;19.99;83.02;101971.69;5027084;28;20108;-60